createdAt,value
2023-04-07T00:03:07.486Z,38.54
2023-04-07T00:08:29.464Z,38.21
2023-04-07T00:13:51.660Z,38.42
2023-04-07T00:19:13.753Z,38.41
2023-04-07T00:24:35.923Z,38.52
2023-04-07T00:29:57.978Z,38.15
2023-04-07T00:35:19.935Z,38.10
2023-04-07T00:40:41.766Z,38.48
2023-04-07T00:46:04.039Z,38.32
2023-04-07T00:51:27.379Z,38.14
2023-04-07T00:56:49.275Z,38.34
2023-04-07T01:02:22.511Z,38.50
2023-04-07T01:07:46.995Z,38.05
2023-04-07T01:13:25.725Z,38.03
2023-04-07T01:18:51.733Z,38.33
2023-04-07T01:24:13.603Z,37.99
2023-04-07T01:29:38.143Z,38.44
2023-04-07T01:35:00.635Z,38.39
2023-04-07T01:40:23.278Z,38.44
2023-04-07T01:45:46.474Z,38.05
2023-04-07T01:51:09.162Z,38.04
2023-04-07T01:56:31.221Z,38.12
2023-04-07T02:01:53.233Z,38.41
2023-04-07T02:07:35.534Z,38.13
2023-04-07T02:12:59.328Z,38.23
2023-04-07T02:18:22.450Z,38.10
2023-04-07T02:23:44.572Z,38.29
2023-04-07T02:29:06.698Z,38.08
2023-04-07T02:34:28.520Z,38.09
2023-04-07T02:39:50.542Z,38.04
2023-04-07T02:45:13.074Z,37.96
2023-04-07T02:50:34.944Z,38.05
2023-04-07T02:55:56.850Z,38.23
2023-04-07T03:01:18.828Z,38.00
2023-04-07T03:06:40.678Z,37.98
2023-04-07T03:12:02.717Z,37.93
2023-04-07T03:17:24.661Z,37.94
2023-04-07T03:22:47.762Z,38.18
2023-04-07T03:28:09.615Z,38.10
2023-04-07T03:33:31.443Z,38.27
2023-04-07T03:38:53.214Z,38.17
2023-04-07T03:44:15.120Z,38.13
2023-04-07T03:49:38.641Z,37.98
2023-04-07T03:55:00.763Z,38.11
2023-04-07T04:00:22.798Z,38.07
2023-04-07T04:05:44.587Z,38.30
2023-04-07T04:11:06.395Z,38.32
2023-04-07T04:16:28.480Z,37.85
2023-04-07T04:21:51.325Z,37.91
2023-04-07T04:27:13.198Z,38.08
2023-04-07T04:32:35.224Z,38.17
2023-04-07T04:37:57.158Z,38.21
2023-04-07T04:43:19.083Z,38.18
2023-04-07T04:48:41.265Z,37.90
2023-04-07T04:54:04.324Z,38.18
2023-04-07T04:59:27.372Z,38.18
2023-04-07T05:04:49.329Z,37.95
2023-04-07T05:10:11.873Z,38.22
2023-04-07T05:15:33.753Z,37.53
2023-04-07T05:20:55.809Z,37.05
2023-04-07T05:26:17.935Z,36.68
2023-04-07T05:31:41.637Z,36.55
2023-04-07T05:37:03.531Z,36.41
2023-04-07T05:42:25.511Z,36.18
2023-04-07T05:47:50.330Z,36.00
2023-04-07T05:53:12.565Z,36.13
2023-04-07T05:58:34.364Z,36.50
2023-04-07T06:03:56.590Z,36.54
2023-04-07T06:09:18.642Z,36.50
2023-04-07T06:14:40.733Z,36.65
2023-04-07T06:20:02.739Z,36.44
2023-04-07T06:25:24.591Z,36.48
2023-04-07T06:30:47.084Z,36.80
2023-04-07T06:36:08.955Z,36.39
2023-04-07T06:41:32.044Z,36.69
2023-04-07T06:46:55.716Z,36.86
2023-04-07T06:52:17.559Z,36.28
2023-04-07T06:57:39.413Z,36.44
2023-04-07T07:03:01.476Z,36.18
2023-04-07T07:08:23.940Z,36.05
2023-04-07T07:13:46.416Z,36.09
2023-04-07T07:19:08.651Z,36.07
2023-04-07T07:24:31.400Z,36.00
2023-04-07T07:29:53.381Z,36.00
2023-04-07T07:35:16.325Z,36.06
2023-04-07T07:40:38.226Z,36.17
2023-04-07T07:46:00.138Z,36.36
2023-04-07T07:51:22.279Z,36.27
2023-04-07T07:56:44.208Z,36.61
2023-04-07T08:02:07.188Z,36.54
2023-04-07T08:07:29.320Z,36.77
2023-04-07T08:12:51.489Z,36.58
2023-04-07T08:18:13.499Z,36.54
2023-04-07T08:23:35.683Z,36.56
2023-04-07T08:28:58.769Z,36.47
2023-04-07T08:34:21.547Z,36.32
2023-04-07T08:39:43.451Z,36.24
2023-04-07T08:45:07.357Z,36.19
2023-04-07T08:50:29.622Z,35.93
2023-04-07T08:55:51.667Z,35.96
2023-04-07T09:01:14.671Z,36.21
2023-04-07T09:06:37.295Z,35.93
2023-04-07T09:11:59.224Z,35.76
2023-04-07T09:17:21.913Z,35.80
2023-04-07T09:22:47.825Z,35.78
2023-04-07T09:28:09.709Z,36.05
2023-04-07T09:33:31.629Z,35.65
2023-04-07T09:38:54.001Z,35.69
2023-04-07T09:44:16.455Z,35.74
2023-04-07T09:49:53.942Z,35.85
2023-04-07T09:55:16.664Z,35.98
2023-04-07T10:00:38.555Z,35.99
2023-04-07T10:06:01.531Z,35.86
2023-04-07T10:11:23.589Z,35.90
2023-04-07T10:16:47.613Z,35.88
2023-04-07T10:22:13.629Z,35.76
2023-04-07T10:27:58.806Z,35.46
2023-04-07T10:33:58.444Z,35.56
2023-04-07T10:39:21.349Z,35.41
2023-04-07T10:44:43.254Z,35.38
2023-04-07T10:50:22.505Z,35.55
2023-04-07T10:55:45.878Z,35.43
2023-04-07T11:01:08.001Z,35.20
2023-04-07T11:06:29.912Z,35.55
2023-04-07T11:11:52.487Z,35.10
2023-04-07T11:17:20.445Z,35.00
2023-04-07T11:22:42.283Z,35.14
2023-04-07T11:28:05.046Z,35.15
2023-04-07T11:33:29.162Z,34.53
2023-04-07T11:44:13.409Z,34.64
2023-04-07T11:49:35.266Z,34.13
2023-04-07T11:54:59.652Z,34.12
2023-04-07T12:00:21.750Z,34.11
2023-04-07T12:05:45.052Z,33.88
2023-04-07T12:11:08.280Z,34.09
2023-04-07T12:16:30.160Z,34.22
2023-04-07T12:21:52.520Z,34.10
2023-04-07T12:27:14.351Z,34.15
2023-04-07T12:32:36.342Z,33.77
2023-04-07T12:37:58.341Z,33.77
2023-04-07T12:43:20.180Z,34.19
2023-04-07T12:48:42.114Z,33.91
2023-04-07T12:54:04.641Z,33.98
2023-04-07T12:59:26.618Z,33.91
2023-04-07T13:10:10.692Z,33.80
2023-04-07T13:15:32.558Z,33.74
2023-04-07T13:21:10.717Z,33.98
2023-04-07T13:26:36.454Z,33.98
2023-04-07T13:32:13.338Z,33.71
2023-04-07T13:37:35.179Z,33.86
2023-04-07T13:42:57.846Z,33.83
2023-04-07T13:48:19.747Z,33.71
2023-04-07T13:53:41.822Z,33.99
2023-04-07T13:59:03.887Z,33.99
2023-04-07T14:04:26.118Z,33.76
2023-04-07T14:09:48.693Z,33.97
2023-04-07T14:15:10.690Z,33.68
2023-04-07T14:20:33.695Z,34.08
2023-04-07T14:25:55.991Z,34.08
2023-04-07T14:31:18.061Z,33.89
2023-04-07T14:36:39.951Z,33.83
2023-04-07T14:42:02.010Z,33.92
2023-04-07T14:47:24.036Z,33.96
2023-04-07T14:52:45.993Z,33.65
2023-04-07T14:58:08.584Z,33.53
2023-04-07T15:03:30.839Z,33.80
2023-04-07T15:08:53.062Z,33.64
2023-04-07T15:14:15.044Z,33.63
2023-04-07T15:19:37.077Z,33.75
2023-04-07T15:24:59.946Z,33.86
2023-04-07T15:30:21.981Z,34.02
2023-04-07T15:35:44.449Z,33.66
2023-04-07T15:41:06.796Z,33.74
2023-04-07T15:46:28.896Z,33.91
2023-04-07T15:51:51.538Z,33.72
2023-04-07T15:57:13.550Z,34.03
2023-04-07T16:02:37.414Z,33.85
2023-04-07T16:07:59.331Z,34.09
2023-04-07T16:13:21.338Z,34.11
2023-04-07T16:18:43.285Z,34.10
2023-04-07T16:24:05.738Z,34.13
2023-04-07T16:29:28.192Z,33.69
2023-04-07T16:34:50.057Z,33.90
2023-04-07T16:40:12.197Z,33.80
2023-04-07T16:45:33.965Z,33.66
2023-04-07T16:50:55.823Z,33.65
2023-04-07T16:56:18.157Z,33.24
2023-04-07T17:01:42.178Z,33.26
2023-04-07T17:07:04.478Z,33.28
2023-04-07T17:12:26.678Z,32.99
2023-04-07T17:17:48.839Z,32.86
2023-04-07T17:23:11.141Z,32.94
2023-04-07T17:28:33.105Z,33.19
2023-04-07T17:33:54.937Z,33.22
2023-04-07T17:39:17.627Z,33.28
2023-04-07T17:44:39.545Z,32.94
2023-04-07T17:50:02.241Z,33.36
2023-04-07T17:55:24.383Z,32.99
2023-04-07T18:00:46.404Z,32.89
2023-04-07T18:06:11.012Z,32.86
2023-04-07T18:11:33.097Z,33.17
2023-04-07T18:16:55.847Z,33.36
2023-04-07T18:22:18.255Z,32.91
2023-04-07T18:27:40.073Z,33.50
2023-04-07T18:33:02.028Z,33.84
2023-04-07T18:38:23.930Z,33.75
2023-04-07T18:43:48.973Z,34.00
2023-04-07T18:49:11.037Z,34.42
2023-04-07T18:54:32.926Z,33.77
2023-04-07T18:59:55.308Z,33.51
2023-04-07T19:05:18.530Z,33.51
2023-04-07T19:10:43.988Z,33.27
2023-04-07T19:16:07.831Z,33.04
2023-04-07T19:21:29.696Z,33.24
2023-04-07T19:26:53.022Z,33.17
2023-04-07T19:32:14.948Z,32.99
2023-04-07T19:37:38.240Z,33.20
2023-04-07T19:43:00.798Z,33.42
2023-04-07T19:48:22.852Z,33.03
2023-04-07T19:53:44.662Z,33.72
2023-04-07T19:59:08.474Z,33.70
2023-04-07T20:04:30.631Z,33.47
2023-04-07T20:09:54.246Z,33.87
2023-04-07T20:15:17.139Z,34.05
2023-04-07T20:20:39.000Z,34.05
2023-04-07T20:26:02.207Z,33.96
2023-04-07T20:31:24.258Z,33.89
2023-04-07T20:36:46.812Z,33.91
2023-04-07T20:42:08.762Z,34.31
2023-04-07T20:47:31.579Z,34.49
2023-04-07T20:52:54.108Z,34.93
2023-04-07T20:58:17.897Z,35.33
2023-04-07T21:03:40.009Z,35.62
2023-04-07T21:09:02.799Z,35.70
2023-04-07T21:14:24.645Z,35.41
2023-04-07T21:19:46.682Z,35.76
2023-04-07T21:25:08.981Z,35.75
2023-04-07T21:30:31.591Z,35.65
2023-04-07T21:35:55.315Z,36.17
2023-04-07T21:41:17.519Z,36.24
2023-04-07T21:46:39.462Z,36.14
2023-04-07T21:52:01.387Z,36.43
2023-04-07T21:57:23.690Z,36.30
2023-04-07T22:02:45.888Z,36.01
2023-04-07T22:08:08.009Z,36.33
2023-04-07T22:13:29.858Z,36.43
2023-04-07T22:18:51.892Z,36.65
2023-04-07T22:24:13.727Z,36.27
2023-04-07T22:29:35.616Z,36.50
2023-04-07T22:34:58.196Z,36.39
2023-04-07T22:40:20.031Z,36.41
2023-04-07T22:45:42.049Z,36.84
2023-04-07T22:51:03.981Z,36.86
2023-04-07T22:56:26.738Z,36.75
2023-04-07T23:01:48.766Z,36.63
2023-04-07T23:07:10.754Z,36.47
2023-04-07T23:12:32.580Z,36.65
2023-04-07T23:17:54.968Z,36.86
2023-04-07T23:23:16.933Z,36.60
2023-04-07T23:28:38.784Z,36.50
2023-04-07T23:34:01.565Z,36.80
2023-04-07T23:39:23.427Z,36.70
2023-04-07T23:44:45.331Z,36.88
2023-04-07T23:50:07.978Z,36.99
2023-04-07T23:55:29.812Z,36.86
